sensor_id;sensor_type;location;lat;lon;timestamp;pressure;altitude;pressure_sealevel;temperature;humidity
71424;BME280;59240;51.370;-0.486;2023-01-28T00:00:10;103021.91;;;2.42;79.59
71424;BME280;59240;51.370;-0.486;2023-01-28T00:02:46;103014.13;;;2.41;79.49
71424;BME280;59240;51.370;-0.486;2023-01-28T00:05:14;103063.91;;;2.79;79.98
71424;BME280;59240;51.370;-0.486;2023-01-28T00:07:50;103046.94;;;2.64;79.28
71424;BME280;59240;51.370;-0.486;2023-01-28T00:10:20;103099.84;;;2.95;79.85
71424;BME280;59240;51.370;-0.486;2023-01-28T00:12:58;103032.97;;;2.59;80.17
71424;BME280;59240;51.370;-0.486;2023-01-28T00:15:34;103059.59;;;2.78;79.99
71424;BME280;59240;51.370;-0.486;2023-01-28T00:18:01;103037.75;;;2.69;79.82
71424;BME280;59240;51.370;-0.486;2023-01-28T00:20:32;103033.44;;;2.68;79.32
71424;BME280;59240;51.370;-0.486;2023-01-28T00:23:03;103016.59;;;2.57;79.67
71424;BME280;59240;51.370;-0.486;2023-01-28T00:25:37;103054.56;;;2.81;79.50
71424;BME280;59240;51.370;-0.486;2023-01-28T00:28:04;103068.53;;;2.86;79.69
71424;BME280;59240;51.370;-0.486;2023-01-28T00:30:33;103050.81;;;2.74;79.56
71424;BME280;59240;51.370;-0.486;2023-01-28T00:33:04;103100.81;;;2.97;79.05
71424;BME280;59240;51.370;-0.486;2023-01-28T00:35:33;103045.84;;;2.59;79.66
71424;BME280;59240;51.370;-0.486;2023-01-28T00:38:06;103012.34;;;2.40;79.05
71424;BME280;59240;51.370;-0.486;2023-01-28T00:40:34;103029.69;;;2.44;79.39
71424;BME280;59240;51.370;-0.486;2023-01-28T00:43:02;103105.09;;;2.79;79.16
71424;BME280;59240;51.370;-0.486;2023-01-28T00:45:31;103069.53;;;2.52;79.44
71424;BME280;59240;51.370;-0.486;2023-01-28T00:47:59;103041.31;;;2.36;79.67
71424;BME280;59240;51.370;-0.486;2023-01-28T00:50:25;103050.16;;;2.41;79.10
71424;BME280;59240;51.370;-0.486;2023-01-28T00:52:53;103029.09;;;2.32;79.72
71424;BME280;59240;51.370;-0.486;2023-01-28T00:55:29;103050.78;;;2.37;79.90
71424;BME280;59240;51.370;-0.486;2023-01-28T00:57:56;103080.13;;;2.58;79.50
71424;BME280;59240;51.370;-0.486;2023-01-28T01:00:23;103016.47;;;2.18;79.67
71424;BME280;59240;51.370;-0.486;2023-01-28T01:03:00;102977.97;;;2.02;80.02
71424;BME280;59240;51.370;-0.486;2023-01-28T01:05:29;103049.41;;;2.43;79.86
71424;BME280;59240;51.370;-0.486;2023-01-28T01:07:55;103031.03;;;2.36;79.92
71424;BME280;59240;51.370;-0.486;2023-01-28T01:10:37;103057.41;;;2.50;79.61
71424;BME280;59240;51.370;-0.486;2023-01-28T01:13:07;103094.38;;;2.69;80.15
71424;BME280;59240;51.370;-0.486;2023-01-28T01:15:37;103061.00;;;2.53;80.07
71424;BME280;59240;51.370;-0.486;2023-01-28T01:18:03;103056.66;;;2.52;80.03
71424;BME280;59240;51.370;-0.486;2023-01-28T01:20:30;103081.50;;;2.69;80.35
71424;BME280;59240;51.370;-0.486;2023-01-28T01:22:58;103066.59;;;2.62;80.35
71424;BME280;59240;51.370;-0.486;2023-01-28T01:25:25;103042.91;;;2.52;80.83
71424;BME280;59240;51.370;-0.486;2023-01-28T01:27:52;103032.50;;;2.49;80.45
71424;BME280;59240;51.370;-0.486;2023-01-28T01:30:19;103063.50;;;2.69;81.28
71424;BME280;59240;51.370;-0.486;2023-01-28T01:32:47;103054.81;;;2.67;80.87
71424;BME280;59240;51.370;-0.486;2023-01-28T01:35:13;103083.31;;;2.90;81.05
71424;BME280;59240;51.370;-0.486;2023-01-28T01:37:46;103079.94;;;2.91;81.21
71424;BME280;59240;51.370;-0.486;2023-01-28T01:40:12;103039.53;;;2.70;81.47
71424;BME280;59240;51.370;-0.486;2023-01-28T01:42:39;103011.88;;;2.66;80.77
71424;BME280;59240;51.370;-0.486;2023-01-28T01:45:11;103064.78;;;2.97;81.34
71424;BME280;59240;51.370;-0.486;2023-01-28T01:47:41;103088.09;;;3.19;81.03
71424;BME280;59240;51.370;-0.486;2023-01-28T01:50:35;103074.00;;;3.11;81.61
71424;BME280;59240;51.370;-0.486;2023-01-28T01:53:10;103088.59;;;3.30;81.41
71424;BME280;59240;51.370;-0.486;2023-01-28T01:55:42;103040.47;;;3.10;81.46
71424;BME280;59240;51.370;-0.486;2023-01-28T01:58:14;103084.66;;;3.38;81.16
71424;BME280;59240;51.370;-0.486;2023-01-28T02:00:42;103060.88;;;3.24;81.33
71424;BME280;59240;51.370;-0.486;2023-01-28T02:03:09;103062.03;;;3.31;80.89
71424;BME280;59240;51.370;-0.486;2023-01-28T02:05:38;103094.59;;;3.50;81.04
71424;BME280;59240;51.370;-0.486;2023-01-28T02:08:05;103047.16;;;3.25;80.80
71424;BME280;59240;51.370;-0.486;2023-01-28T02:10:51;103031.44;;;3.19;81.24
71424;BME280;59240;51.370;-0.486;2023-01-28T02:13:21;103070.97;;;3.39;81.08
71424;BME280;59240;51.370;-0.486;2023-01-28T02:15:50;103057.16;;;3.37;80.56
71424;BME280;59240;51.370;-0.486;2023-01-28T02:18:17;103072.13;;;3.46;81.34
71424;BME280;59240;51.370;-0.486;2023-01-28T02:27:18;103104.09;;;3.70;81.13
71424;BME280;59240;51.370;-0.486;2023-01-28T02:29:55;103102.50;;;3.72;81.07
71424;BME280;59240;51.370;-0.486;2023-01-28T02:32:38;103094.53;;;3.68;81.03
71424;BME280;59240;51.370;-0.486;2023-01-28T02:35:13;103060.13;;;3.46;80.99
71424;BME280;59240;51.370;-0.486;2023-01-28T02:37:56;103080.56;;;3.63;80.76
71424;BME280;59240;51.370;-0.486;2023-01-28T02:40:28;103087.84;;;3.71;80.83
71424;BME280;59240;51.370;-0.486;2023-01-28T02:42:56;103076.44;;;3.66;80.71
71424;BME280;59240;51.370;-0.486;2023-01-28T02:45:31;103103.03;;;3.84;80.35
71424;BME280;59240;51.370;-0.486;2023-01-28T02:48:20;103078.53;;;3.75;80.03
71424;BME280;59240;51.370;-0.486;2023-01-28T02:51:01;103069.66;;;3.68;80.40
71424;BME280;59240;51.370;-0.486;2023-01-28T02:53:39;103096.97;;;3.84;79.99
71424;BME280;59240;51.370;-0.486;2023-01-28T02:57:28;103120.63;;;3.95;79.96
71424;BME280;59240;51.370;-0.486;2023-01-28T02:59:39;103118.16;;;3.98;80.16
71424;BME280;59240;51.370;-0.486;2023-01-28T03:02:12;103092.63;;;3.83;80.39
71424;BME280;59240;51.370;-0.486;2023-01-28T03:04:52;103121.72;;;4.00;79.88
71424;BME280;59240;51.370;-0.486;2023-01-28T03:07:26;103090.66;;;3.77;80.01
71424;BME280;59240;51.370;-0.486;2023-01-28T03:09:55;103118.06;;;3.95;79.82
71424;BME280;59240;51.370;-0.486;2023-01-28T03:12:26;103094.19;;;3.79;79.64
71424;BME280;59240;51.370;-0.486;2023-01-28T03:16:08;103132.31;;;4.06;78.96
71424;BME280;59240;51.370;-0.486;2023-01-28T03:18:53;103125.91;;;3.98;79.32
71424;BME280;59240;51.370;-0.486;2023-01-28T03:21:41;103140.16;;;4.09;79.89
71424;BME280;59240;51.370;-0.486;2023-01-28T03:24:32;103077.09;;;3.81;79.29
71424;BME280;59240;51.370;-0.486;2023-01-28T03:27:46;103136.91;;;4.13;79.17
71424;BME280;59240;51.370;-0.486;2023-01-28T03:30:45;103105.03;;;3.92;78.96
71424;BME280;59240;51.370;-0.486;2023-01-28T03:33:34;103095.59;;;3.92;79.35
71424;BME280;59240;51.370;-0.486;2023-01-28T03:36:21;103126.59;;;4.13;79.17
71424;BME280;59240;51.370;-0.486;2023-01-28T03:39:06;103105.28;;;3.98;79.00
71424;BME280;59240;51.370;-0.486;2023-01-28T03:41:32;103103.34;;;3.92;79.29
71424;BME280;59240;51.370;-0.486;2023-01-28T03:43:59;103105.28;;;3.98;79.05
71424;BME280;59240;51.370;-0.486;2023-01-28T03:46:44;103117.50;;;4.02;78.99
71424;BME280;59240;51.370;-0.486;2023-01-28T03:49:11;103133.56;;;4.16;79.30
71424;BME280;59240;51.370;-0.486;2023-01-28T03:51:38;103096.50;;;3.93;78.91
71424;BME280;59240;51.370;-0.486;2023-01-28T03:54:06;103149.25;;;4.20;78.74
71424;BME280;59240;51.370;-0.486;2023-01-28T03:56:33;103141.50;;;4.20;78.92
71424;BME280;59240;51.370;-0.486;2023-01-28T03:59:03;103106.81;;;3.93;78.64
71424;BME280;59240;51.370;-0.486;2023-01-28T04:01:29;103142.13;;;4.15;78.68
71424;BME280;59240;51.370;-0.486;2023-01-28T04:03:56;103129.72;;;4.06;78.22
71424;BME280;59240;51.370;-0.486;2023-01-28T04:06:23;103124.41;;;4.03;77.74
71424;BME280;59240;51.370;-0.486;2023-01-28T04:08:52;103131.59;;;4.10;78.13
71424;BME280;59240;51.370;-0.486;2023-01-28T04:11:19;103124.41;;;4.03;77.65
71424;BME280;59240;51.370;-0.486;2023-01-28T04:13:53;103098.25;;;3.94;78.13
71424;BME280;59240;51.370;-0.486;2023-01-28T04:16:21;103101.81;;;3.97;78.79
71424;BME280;59240;51.370;-0.486;2023-01-28T04:18:50;103094.72;;;3.92;77.66
71424;BME280;59240;51.370;-0.486;2023-01-28T04:21:17;103098.31;;;3.95;77.34
71424;BME280;59240;51.370;-0.486;2023-01-28T04:23:46;103106.19;;;3.98;77.28
71424;BME280;59240;51.370;-0.486;2023-01-28T04:26:12;103122.09;;;4.09;77.33
71424;BME280;59240;51.370;-0.486;2023-01-28T04:28:39;103138.09;;;4.21;78.12
71424;BME280;59240;51.370;-0.486;2023-01-28T04:31:06;103108.94;;;4.03;76.74
71424;BME280;59240;51.370;-0.486;2023-01-28T04:33:33;103131.75;;;4.13;77.00
71424;BME280;59240;51.370;-0.486;2023-01-28T04:36:00;103107.94;;;3.99;76.83
71424;BME280;59240;51.370;-0.486;2023-01-28T04:38:26;103120.41;;;4.09;77.82
71424;BME280;59240;51.370;-0.486;2023-01-28T04:40:53;103101.91;;;3.99;77.49
71424;BME280;59240;51.370;-0.486;2023-01-28T04:43:20;103112.50;;;4.05;76.87
71424;BME280;59240;51.370;-0.486;2023-01-28T04:45:47;103108.06;;;4.02;76.48
71424;BME280;59240;51.370;-0.486;2023-01-28T04:48:15;103108.13;;;4.04;76.53
71424;BME280;59240;51.370;-0.486;2023-01-28T04:50:43;103114.72;;;4.18;76.56
71424;BME280;59240;51.370;-0.486;2023-01-28T04:53:11;103132.38;;;4.28;76.70
71424;BME280;59240;51.370;-0.486;2023-01-28T04:55:38;103098.78;;;4.06;76.13
71424;BME280;59240;51.370;-0.486;2023-01-28T04:58:05;103069.72;;;3.91;75.92
71424;BME280;59240;51.370;-0.486;2023-01-28T05:00:35;103117.25;;;4.17;75.45
71424;BME280;59240;51.370;-0.486;2023-01-28T05:03:01;103105.94;;;4.13;75.29
71424;BME280;59240;51.370;-0.486;2023-01-28T05:05:28;103062.69;;;3.87;74.85
71424;BME280;59240;51.370;-0.486;2023-01-28T05:07:56;103132.38;;;4.28;75.20
71424;BME280;59240;51.370;-0.486;2023-01-28T05:10:24;103133.19;;;4.27;75.46
71424;BME280;59240;51.370;-0.486;2023-01-28T05:12:51;103110.97;;;4.10;75.36
71424;BME280;59240;51.370;-0.486;2023-01-28T05:15:18;103132.22;;;4.25;74.28
71424;BME280;59240;51.370;-0.486;2023-01-28T05:17:45;103127.06;;;4.25;75.42
71424;BME280;59240;51.370;-0.486;2023-01-28T05:20:13;103080.56;;;4.03;75.15
71424;BME280;59240;51.370;-0.486;2023-01-28T05:22:40;103089.38;;;4.08;74.95
71424;BME280;59240;51.370;-0.486;2023-01-28T05:25:08;103113.78;;;4.16;73.91
71424;BME280;59240;51.370;-0.486;2023-01-28T05:27:35;103089.94;;;4.01;74.37
71424;BME280;59240;51.370;-0.486;2023-01-28T05:30:02;103121.53;;;4.16;74.84
71424;BME280;59240;51.370;-0.486;2023-01-28T05:32:29;103110.84;;;4.07;74.63
71424;BME280;59240;51.370;-0.486;2023-01-28T05:34:55;103090.34;;;3.91;74.11
71424;BME280;59240;51.370;-0.486;2023-01-28T05:37:22;103091.19;;;3.90;74.69
71424;BME280;59240;51.370;-0.486;2023-01-28T05:39:49;103105.16;;;3.95;74.86
71424;BME280;59240;51.370;-0.486;2023-01-28T05:42:15;103112.69;;;3.90;74.33
71424;BME280;59240;51.370;-0.486;2023-01-28T05:44:45;103136.50;;;4.04;74.45
71424;BME280;59240;51.370;-0.486;2023-01-28T05:47:11;103114.66;;;3.96;74.29
71424;BME280;59240;51.370;-0.486;2023-01-28T05:49:38;103090.53;;;3.74;74.45
71424;BME280;59240;51.370;-0.486;2023-01-28T05:52:05;103101.13;;;3.80;74.62
71424;BME280;59240;51.370;-0.486;2023-01-28T05:54:32;103127.38;;;3.91;74.67
71424;BME280;59240;51.370;-0.486;2023-01-28T05:56:58;103134.56;;;3.98;74.80
71424;BME280;59240;51.370;-0.486;2023-01-28T05:59:25;103106.13;;;3.77;74.43
71424;BME280;59240;51.370;-0.486;2023-01-28T06:01:52;103117.47;;;3.81;74.64
71424;BME280;59240;51.370;-0.486;2023-01-28T06:04:18;103134.34;;;3.94;74.48
71424;BME280;59240;51.370;-0.486;2023-01-28T06:06:45;103086.59;;;3.63;74.30
71424;BME280;59240;51.370;-0.486;2023-01-28T06:09:12;103070.63;;;3.51;74.18
71424;BME280;59240;51.370;-0.486;2023-01-28T06:11:38;103130.69;;;3.89;73.97
71424;BME280;59240;51.370;-0.486;2023-01-28T06:14:07;103065.22;;;3.45;74.33
71424;BME280;59240;51.370;-0.486;2023-01-28T06:16:37;103095.97;;;3.61;74.69
71424;BME280;59240;51.370;-0.486;2023-01-28T06:19:03;103133.00;;;3.82;74.51
71424;BME280;59240;51.370;-0.486;2023-01-28T06:21:30;103102.81;;;3.61;74.99
71424;BME280;59240;51.370;-0.486;2023-01-28T06:23:57;103131.19;;;3.80;74.49
71424;BME280;59240;51.370;-0.486;2023-01-28T06:26:27;103096.78;;;3.60;74.57
71424;BME280;59240;51.370;-0.486;2023-01-28T06:28:54;103100.31;;;3.62;74.88
71424;BME280;59240;51.370;-0.486;2023-01-28T06:31:20;103156.75;;;3.95;74.59
71424;BME280;59240;51.370;-0.486;2023-01-28T06:33:47;103125.97;;;3.78;74.72
71424;BME280;59240;51.370;-0.486;2023-01-28T06:36:25;103075.63;;;3.48;75.07
71424;BME280;59240;51.370;-0.486;2023-01-28T06:38:52;103124.06;;;3.74;74.90
71424;BME280;59240;51.370;-0.486;2023-01-28T06:41:21;103120.88;;;3.80;75.02
71424;BME280;59240;51.370;-0.486;2023-01-28T06:43:48;103123.16;;;3.74;75.00
71424;BME280;59240;51.370;-0.486;2023-01-28T06:46:22;103100.72;;;3.71;74.81
71424;BME280;59240;51.370;-0.486;2023-01-28T06:48:51;103086.22;;;3.54;75.17
71424;BME280;59240;51.370;-0.486;2023-01-28T06:51:18;103082.97;;;3.58;75.22
71424;BME280;59240;51.370;-0.486;2023-01-28T06:53:44;103086.97;;;3.51;75.42
71424;BME280;59240;51.370;-0.486;2023-01-28T06:56:14;103109.91;;;3.65;74.92
71424;BME280;59240;51.370;-0.486;2023-01-28T06:58:49;103094.88;;;3.56;75.01
71424;BME280;59240;51.370;-0.486;2023-01-28T07:01:21;103084.44;;;3.53;75.43
71424;BME280;59240;51.370;-0.486;2023-01-28T07:03:50;103119.16;;;3.80;74.70
71424;BME280;59240;51.370;-0.486;2023-01-28T07:06:22;103099.63;;;3.66;75.47
71424;BME280;59240;51.370;-0.486;2023-01-28T07:08:51;103146.03;;;3.86;75.12
71424;BME280;59240;51.370;-0.486;2023-01-28T07:11:20;103104.75;;;3.65;75.24
71424;BME280;59240;51.370;-0.486;2023-01-28T07:13:48;103105.41;;;3.61;75.62
71424;BME280;59240;51.370;-0.486;2023-01-28T07:16:15;103125.13;;;3.79;75.79
71424;BME280;59240;51.370;-0.486;2023-01-28T07:18:42;103137.22;;;3.80;75.49
71424;BME280;59240;51.370;-0.486;2023-01-28T07:21:12;103087.09;;;3.54;75.26
71424;BME280;59240;51.370;-0.486;2023-01-28T07:23:46;103101.06;;;3.60;75.48
71424;BME280;59240;51.370;-0.486;2023-01-28T07:26:22;103098.16;;;3.52;76.02
71424;BME280;59240;51.370;-0.486;2023-01-28T07:28:49;103121.81;;;3.63;75.64
71424;BME280;59240;51.370;-0.486;2023-01-28T07:31:18;103165.34;;;3.95;76.11
71424;BME280;59240;51.370;-0.486;2023-01-28T07:33:45;103136.06;;;3.74;75.97
71424;BME280;59240;51.370;-0.486;2023-01-28T07:36:14;103115.94;;;3.65;75.56
71424;BME280;59240;51.370;-0.486;2023-01-28T07:38:41;103139.56;;;3.76;76.06
71424;BME280;59240;51.370;-0.486;2023-01-28T07:41:16;103103.84;;;3.64;75.49
71424;BME280;59240;51.370;-0.486;2023-01-28T07:43:45;103140.59;;;3.79;75.64
71424;BME280;59240;51.370;-0.486;2023-01-28T07:46:12;103174.84;;;3.96;76.01
71424;BME280;59240;51.370;-0.486;2023-01-28T07:48:39;103121.97;;;3.66;75.75
71424;BME280;59240;51.370;-0.486;2023-01-28T07:51:05;103108.75;;;3.58;76.00
71424;BME280;59240;51.370;-0.486;2023-01-28T07:53:32;103111.50;;;3.63;76.19
71424;BME280;59240;51.370;-0.486;2023-01-28T07:56:01;103103.44;;;3.55;75.86
71424;BME280;59240;51.370;-0.486;2023-01-28T07:58:31;103093.66;;;3.48;76.26
71424;BME280;59240;51.370;-0.486;2023-01-28T08:01:04;103095.53;;;3.50;75.83
71424;BME280;59240;51.370;-0.486;2023-01-28T08:03:33;103123.84;;;3.70;76.00
71424;BME280;59240;51.370;-0.486;2023-01-28T08:06:02;103124.47;;;3.64;76.02
71424;BME280;59240;51.370;-0.486;2023-01-28T08:08:35;103094.59;;;3.50;75.94
71424;BME280;59240;51.370;-0.486;2023-01-28T08:11:55;103117.69;;;3.66;76.40
71424;BME280;59240;51.370;-0.486;2023-01-28T08:14:47;103107.16;;;3.62;76.02
71424;BME280;59240;51.370;-0.486;2023-01-28T08:17:28;103161.91;;;3.95;76.65
71424;BME280;59240;51.370;-0.486;2023-01-28T08:20:16;103136.34;;;3.80;75.88
71424;BME280;59240;51.370;-0.486;2023-01-28T08:22:44;103115.16;;;3.68;76.94
71424;BME280;59240;51.370;-0.486;2023-01-28T08:25:43;103125.00;;;3.76;76.10
71424;BME280;59240;51.370;-0.486;2023-01-28T08:28:24;103077.53;;;3.52;76.65
71424;BME280;59240;51.370;-0.486;2023-01-28T08:31:55;103144.66;;;3.94;76.78
71424;BME280;59240;51.370;-0.486;2023-01-28T08:37:59;103087.41;;;3.62;76.61
71424;BME280;59240;51.370;-0.486;2023-01-28T08:40:42;103105.41;;;3.80;77.04
71424;BME280;59240;51.370;-0.486;2023-01-28T08:48:10;103199.56;;;4.31;76.42
71424;BME280;59240;51.370;-0.486;2023-01-28T08:54:58;103096.00;;;3.82;75.80
71424;BME280;59240;51.370;-0.486;2023-01-28T08:58:41;103104.78;;;3.86;75.88
71424;BME280;59240;51.370;-0.486;2023-01-28T09:05:38;103215.84;;;4.50;75.90
71424;BME280;59240;51.370;-0.486;2023-01-28T09:12:47;103140.69;;;4.21;75.34
71424;BME280;59240;51.370;-0.486;2023-01-28T09:15:28;103110.97;;;4.10;75.73
71424;BME280;59240;51.370;-0.486;2023-01-28T09:18:23;103163.97;;;4.44;75.38
71424;BME280;59240;51.370;-0.486;2023-01-28T09:20:55;103130.63;;;4.27;76.82
71424;BME280;59240;51.370;-0.486;2023-01-28T09:23:27;103137.78;;;4.34;75.93
71424;BME280;59240;51.370;-0.486;2023-01-28T09:30:04;103142.50;;;4.45;75.65
71424;BME280;59240;51.370;-0.486;2023-01-28T09:33:22;103135.84;;;4.50;75.94
71424;BME280;59240;51.370;-0.486;2023-01-28T09:36:12;103131.59;;;4.52;76.21
71424;BME280;59240;51.370;-0.486;2023-01-28T09:39:32;103157.16;;;4.66;75.16
71424;BME280;59240;51.370;-0.486;2023-01-28T09:43:07;103163.84;;;4.82;75.68
71424;BME280;59240;51.370;-0.486;2023-01-28T09:51:08;103126.56;;;4.76;76.20
71424;BME280;59240;51.370;-0.486;2023-01-28T09:54:03;103149.75;;;4.97;76.34
71424;BME280;59240;51.370;-0.486;2023-01-28T10:09:55;103114.06;;;5.09;75.42
71424;BME280;59240;51.370;-0.486;2023-01-28T10:21:05;103194.69;;;5.69;74.55
71424;BME280;59240;51.370;-0.486;2023-01-28T10:24:44;103208.31;;;5.87;74.87
71424;BME280;59240;51.370;-0.486;2023-01-28T10:27:37;103103.81;;;5.34;74.09
71424;BME280;59240;51.370;-0.486;2023-01-28T10:30:51;103131.22;;;5.53;74.02
71424;BME280;59240;51.370;-0.486;2023-01-28T10:33:39;103126.09;;;5.55;71.43
71424;BME280;59240;51.370;-0.486;2023-01-28T10:36:46;103108.69;;;5.49;72.84
71424;BME280;59240;51.370;-0.486;2023-01-28T10:39:29;103103.59;;;5.52;73.53
71424;BME280;59240;51.370;-0.486;2023-01-28T10:42:57;103162.94;;;5.95;73.08
71424;BME280;59240;51.370;-0.486;2023-01-28T10:46:02;103182.53;;;6.13;72.15
71424;BME280;59240;51.370;-0.486;2023-01-28T10:49:31;103108.31;;;5.88;72.71
71424;BME280;59240;51.370;-0.486;2023-01-28T10:53:05;103187.09;;;6.45;71.86
71424;BME280;59240;51.370;-0.486;2023-01-28T11:09:01;103085.28;;;6.46;70.79
71424;BME280;59240;51.370;-0.486;2023-01-28T11:20:23;103070.00;;;6.82;67.41
71424;BME280;59240;51.370;-0.486;2023-01-28T11:23:34;103075.59;;;6.96;68.94
71424;BME280;59240;51.370;-0.486;2023-01-28T12:34:47;103132.72;;;8.24;66.11
71424;BME280;59240;51.370;-0.486;2023-01-28T12:41:35;103101.56;;;8.24;62.93
71424;BME280;59240;51.370;-0.486;2023-01-28T12:44:45;103109.22;;;8.19;61.48
71424;BME280;59240;51.370;-0.486;2023-01-28T12:47:21;103046.03;;;7.83;63.66
71424;BME280;59240;51.370;-0.486;2023-01-28T12:50:09;103037.22;;;7.78;63.17
71424;BME280;59240;51.370;-0.486;2023-01-28T13:10:24;103110.59;;;8.38;63.59
71424;BME280;59240;51.370;-0.486;2023-01-28T13:21:05;103017.31;;;8.11;62.76
71424;BME280;59240;51.370;-0.486;2023-01-28T13:27:30;102999.13;;;8.11;64.49
71424;BME280;59240;51.370;-0.486;2023-01-28T13:30:49;102982.56;;;8.06;63.12
71424;BME280;59240;51.370;-0.486;2023-01-28T13:38:05;103013.34;;;8.27;62.80
71424;BME280;59240;51.370;-0.486;2023-01-28T13:41:00;103000.88;;;8.12;62.05
71424;BME280;59240;51.370;-0.486;2023-01-28T13:43:49;102975.41;;;7.96;63.34
71424;BME280;59240;51.370;-0.486;2023-01-28T13:46:28;103030.88;;;8.36;63.18
71424;BME280;59240;51.370;-0.486;2023-01-28T13:48:59;103003.78;;;8.25;63.60
71424;BME280;59240;51.370;-0.486;2023-01-28T13:52:16;103008.19;;;8.29;63.17
71424;BME280;59240;51.370;-0.486;2023-01-28T13:55:05;103041.66;;;8.51;62.76
71424;BME280;59240;51.370;-0.486;2023-01-28T14:19:27;103049.38;;;8.49;61.98
71424;BME280;59240;51.370;-0.486;2023-01-28T14:21:57;102953.81;;;7.97;62.47
71424;BME280;59240;51.370;-0.486;2023-01-28T14:28:01;102954.66;;;7.96;62.97
71424;BME280;59240;51.370;-0.486;2023-01-28T14:37:17;102966.16;;;8.07;61.59
71424;BME280;59240;51.370;-0.486;2023-01-28T14:39:57;103037.13;;;8.44;61.14
71424;BME280;59240;51.370;-0.486;2023-01-28T14:59:22;103017.31;;;8.11;62.37
71424;BME280;59240;51.370;-0.486;2023-01-28T15:02:18;102979.50;;;7.88;63.02
71424;BME280;59240;51.370;-0.486;2023-01-28T15:05:19;103042.56;;;8.18;61.01
71424;BME280;59240;51.370;-0.486;2023-01-28T15:08:18;102983.66;;;7.80;62.08
71424;BME280;59240;51.370;-0.486;2023-01-28T15:11:23;102994.19;;;7.86;62.66
71424;BME280;59240;51.370;-0.486;2023-01-28T15:17:22;103044.94;;;8.09;61.34
71424;BME280;59240;51.370;-0.486;2023-01-28T15:19:58;103046.63;;;8.07;62.77
71424;BME280;59240;51.370;-0.486;2023-01-28T15:22:35;103009.56;;;7.78;63.89
71424;BME280;59240;51.370;-0.486;2023-01-28T15:25:42;103076.38;;;8.21;61.75
71424;BME280;59240;51.370;-0.486;2023-01-28T15:28:42;103090.22;;;8.20;62.40
71424;BME280;59240;51.370;-0.486;2023-01-28T15:31:26;103060.25;;;7.99;61.46
71424;BME280;59240;51.370;-0.486;2023-01-28T15:34:19;103067.22;;;8.01;60.83
71424;BME280;59240;51.370;-0.486;2023-01-28T15:37:01;103048.75;;;7.89;63.33
71424;BME280;59240;51.370;-0.486;2023-01-28T15:39:34;102997.00;;;7.60;63.33
71424;BME280;59240;51.370;-0.486;2023-01-28T15:42:06;102999.59;;;7.60;62.09
71424;BME280;59240;51.370;-0.486;2023-01-28T15:45:01;103053.13;;;7.90;63.47
71424;BME280;59240;51.370;-0.486;2023-01-28T15:47:52;103051.31;;;7.87;62.83
71424;BME280;59240;51.370;-0.486;2023-01-28T15:50:42;103015.31;;;7.66;63.23
71424;BME280;59240;51.370;-0.486;2023-01-28T15:53:13;103018.78;;;7.67;63.30
71424;BME280;59240;51.370;-0.486;2023-01-28T15:55:50;102991.63;;;7.54;62.67
71424;BME280;59240;51.370;-0.486;2023-01-28T15:58:27;102991.63;;;7.54;62.61
71424;BME280;59240;51.370;-0.486;2023-01-28T16:03:36;103037.38;;;7.84;62.95
71424;BME280;59240;51.370;-0.486;2023-01-28T16:06:29;103022.34;;;7.71;63.16
71424;BME280;59240;51.370;-0.486;2023-01-28T16:09:05;103022.38;;;7.72;64.00
71424;BME280;59240;51.370;-0.486;2023-01-28T16:11:50;103024.09;;;7.72;63.61
71424;BME280;59240;51.370;-0.486;2023-01-28T16:17:53;103007.38;;;7.60;64.10
71424;BME280;59240;51.370;-0.486;2023-01-28T16:20:32;102986.31;;;7.48;63.71
71424;BME280;59240;51.370;-0.486;2023-01-28T16:23:01;102969.63;;;7.38;64.28
71424;BME280;59240;51.370;-0.486;2023-01-28T16:25:38;102959.00;;;7.28;64.43
71424;BME280;59240;51.370;-0.486;2023-01-28T16:28:18;102949.38;;;7.24;64.18
71424;BME280;59240;51.370;-0.486;2023-01-28T16:30:58;102994.84;;;7.44;64.46
71424;BME280;59240;51.370;-0.486;2023-01-28T16:33:28;103000.78;;;7.40;63.96
71424;BME280;59240;51.370;-0.486;2023-01-28T16:35:59;102999.69;;;7.32;63.88
71424;BME280;59240;51.370;-0.486;2023-01-28T16:38:43;102988.94;;;7.18;63.29
71424;BME280;59240;51.370;-0.486;2023-01-28T16:41:28;103020.53;;;7.35;63.67
71424;BME280;59240;51.370;-0.486;2023-01-28T16:44:13;103042.47;;;7.48;64.08
71424;BME280;59240;51.370;-0.486;2023-01-28T16:46:40;103060.84;;;7.55;64.70
71424;BME280;59240;51.370;-0.486;2023-01-28T16:49:18;103023.03;;;7.32;64.51
71424;BME280;59240;51.370;-0.486;2023-01-28T16:51:47;103021.28;;;7.31;64.74
71424;BME280;59240;51.370;-0.486;2023-01-28T16:54:17;102981.84;;;7.11;64.94
71424;BME280;59240;51.370;-0.486;2023-01-28T16:56:55;103007.09;;;7.18;64.62
71424;BME280;59240;51.370;-0.486;2023-01-28T16:59:22;103073.00;;;7.56;64.62
71424;BME280;59240;51.370;-0.486;2023-01-28T17:01:49;103003.47;;;7.11;64.36
71424;BME280;59240;51.370;-0.486;2023-01-28T17:04:19;103059.47;;;7.36;64.75
71424;BME280;59240;51.370;-0.486;2023-01-28T17:06:50;103034.00;;;7.22;64.85
71424;BME280;59240;51.370;-0.486;2023-01-28T17:09:19;103003.94;;;6.98;64.29
71424;BME280;59240;51.370;-0.486;2023-01-28T17:11:59;103068.84;;;7.33;64.62
71424;BME280;59240;51.370;-0.486;2023-01-28T17:14:27;103031.91;;;7.08;65.32
71424;BME280;59240;51.370;-0.486;2023-01-28T17:17:20;103078.47;;;7.35;64.81
71424;BME280;59240;51.370;-0.486;2023-01-28T17:19:58;103071.34;;;7.28;65.24
71424;BME280;59240;51.370;-0.486;2023-01-28T17:22:26;103075.72;;;7.31;65.12
71424;BME280;59240;51.370;-0.486;2023-01-28T17:24:55;103043.88;;;7.05;65.69
71424;BME280;59240;51.370;-0.486;2023-01-28T17:27:22;103063.25;;;7.18;66.08
71424;BME280;59240;51.370;-0.486;2023-01-28T17:29:51;103003.44;;;6.80;65.15
71424;BME280;59240;51.370;-0.486;2023-01-28T17:32:17;103034.16;;;6.98;65.69
71424;BME280;59240;51.370;-0.486;2023-01-28T17:34:46;103019.25;;;6.89;66.02
71424;BME280;59240;51.370;-0.486;2023-01-28T17:37:16;103044.53;;;6.98;66.01
71424;BME280;59240;51.370;-0.486;2023-01-28T17:39:46;103081.44;;;7.19;66.48
71424;BME280;59240;51.370;-0.486;2023-01-28T17:42:12;103068.19;;;7.08;65.69
71424;BME280;59240;51.370;-0.486;2023-01-28T17:44:54;103073.44;;;7.11;66.33